createdAt,value
2022-08-25T00:00:16.425Z,29.969
2022-08-25T00:05:16.533Z,29.967
2022-08-25T00:10:16.475Z,29.971
2022-08-25T00:15:16.434Z,29.974
2022-08-25T00:20:16.573Z,29.973
2022-08-25T00:25:16.658Z,29.975
2022-08-25T00:30:16.461Z,29.973
2022-08-25T00:35:16.806Z,29.973
2022-08-25T00:40:16.639Z,29.974
2022-08-25T00:45:16.506Z,29.976
2022-08-25T00:50:16.608Z,29.978
2022-08-25T00:55:17.015Z,29.977
2022-08-25T01:00:16.638Z,29.979
2022-08-25T01:05:16.509Z,29.980
2022-08-25T01:10:16.688Z,29.980
2022-08-25T01:15:16.608Z,29.978
2022-08-25T01:20:16.596Z,29.979
2022-08-25T01:25:16.670Z,29.980
2022-08-25T01:30:16.845Z,29.981
2022-08-25T01:35:16.742Z,29.980
2022-08-25T01:40:16.802Z,29.982
2022-08-25T01:45:16.688Z,29.982
2022-08-25T01:50:16.677Z,29.983
2022-08-25T01:55:16.841Z,29.982
2022-08-25T02:00:16.800Z,29.982
2022-08-25T02:05:20.304Z,29.984
2022-08-25T02:10:16.946Z,29.984
2022-08-25T02:15:16.800Z,29.985
2022-08-25T02:20:16.848Z,29.988
2022-08-25T02:25:16.893Z,29.985
2022-08-25T02:30:16.760Z,29.988
2022-08-25T02:35:16.779Z,29.986
2022-08-25T02:40:17.063Z,29.987
2022-08-25T02:45:16.875Z,29.988
2022-08-25T02:50:16.966Z,29.991
2022-08-25T02:55:16.935Z,29.990
2022-08-25T03:00:16.916Z,29.993
2022-08-25T03:05:16.947Z,29.993
2022-08-25T03:10:16.986Z,29.994
2022-08-25T03:15:17.067Z,29.994
2022-08-25T03:20:17.020Z,29.992
2022-08-25T03:25:19.926Z,29.995
2022-08-25T03:30:17.178Z,29.994
2022-08-25T03:35:18.723Z,29.994
2022-08-25T03:40:17.035Z,29.994
2022-08-25T03:45:16.978Z,29.995
2022-08-25T03:50:17.038Z,29.995
2022-08-25T03:55:16.925Z,29.998
2022-08-25T04:00:15.953Z,29.995
2022-08-25T04:05:15.955Z,29.997
2022-08-25T04:10:16.027Z,29.999
2022-08-25T04:15:16.022Z,30.002
2022-08-25T04:20:16.040Z,30.002
2022-08-25T04:25:16.069Z,30.005
2022-08-25T04:30:16.145Z,30.007
2022-08-25T04:35:16.098Z,30.009
2022-08-25T04:40:16.467Z,30.009
2022-08-25T04:45:16.366Z,30.009
2022-08-25T04:50:16.154Z,30.012
2022-08-25T04:55:16.088Z,30.015
2022-08-25T05:00:16.223Z,30.015
2022-08-25T05:05:16.126Z,30.013
2022-08-25T05:10:16.138Z,30.015
2022-08-25T05:15:16.160Z,30.014
2022-08-25T05:20:16.256Z,30.014
2022-08-25T05:25:16.178Z,30.010
2022-08-25T05:30:16.154Z,30.009
2022-08-25T05:35:16.221Z,30.010
2022-08-25T05:40:16.236Z,30.009
2022-08-25T05:45:20.484Z,30.009
2022-08-25T05:50:16.294Z,30.009
2022-08-25T05:55:16.190Z,30.008
2022-08-25T06:00:16.382Z,30.006
2022-08-25T06:05:16.423Z,30.009
2022-08-25T06:10:16.248Z,30.008
2022-08-25T06:15:16.272Z,30.009
2022-08-25T06:20:16.301Z,30.010
2022-08-25T06:25:16.264Z,30.012
2022-08-25T06:30:16.328Z,30.012
2022-08-25T06:35:16.266Z,30.013
2022-08-25T06:40:16.646Z,30.010
2022-08-25T06:45:16.444Z,30.010
2022-08-25T06:50:16.380Z,30.012
2022-08-25T06:55:16.351Z,30.010
2022-08-25T07:00:16.386Z,30.009
2022-08-25T07:05:26.931Z,30.013
2022-08-25T07:10:16.489Z,30.012
2022-08-25T07:15:20.351Z,30.014
2022-08-25T07:20:16.649Z,30.012
2022-08-25T07:25:17.820Z,30.012
2022-08-25T07:30:16.429Z,30.009
2022-08-25T07:35:18.869Z,30.012
2022-08-25T07:40:16.625Z,30.011
2022-08-25T07:45:17.339Z,30.008
2022-08-25T07:50:16.465Z,30.009
2022-08-25T07:55:17.797Z,30.010
2022-08-25T08:00:16.488Z,30.007
2022-08-25T08:05:16.506Z,30.008
2022-08-25T08:11:04.477Z,30.007
2022-08-25T08:15:16.656Z,30.005
2022-08-25T08:20:16.535Z,30.003
2022-08-25T08:25:18.783Z,30.002
2022-08-25T08:30:16.673Z,30.004
2022-08-25T08:35:16.670Z,30.004
2022-08-25T08:40:16.650Z,30.003
2022-08-25T08:45:16.741Z,30.002
2022-08-25T08:50:21.606Z,30.004
2022-08-25T08:55:16.598Z,30.004
2022-08-25T09:00:16.809Z,30.003
2022-08-25T09:05:16.625Z,30.001
2022-08-25T09:10:16.796Z,30.000
2022-08-25T09:15:16.638Z,30.004
2022-08-25T09:20:18.781Z,30.002
2022-08-25T09:25:22.032Z,30.001
2022-08-25T09:30:16.793Z,30.003
2022-08-25T09:35:16.725Z,30.006
2022-08-25T09:40:16.851Z,30.007
2022-08-25T09:45:16.733Z,30.005
2022-08-25T09:50:18.458Z,30.007
2022-08-25T09:55:16.796Z,30.007
2022-08-25T10:00:16.721Z,30.008
2022-08-25T10:05:16.910Z,30.009
2022-08-25T10:10:16.815Z,30.010
2022-08-25T10:15:16.734Z,30.012
2022-08-25T10:20:16.784Z,30.017
2022-08-25T10:25:16.839Z,30.018
2022-08-25T10:30:17.042Z,30.021
2022-08-25T10:35:16.876Z,30.030
2022-08-25T10:40:16.994Z,30.027
2022-08-25T10:45:21.929Z,30.028
2022-08-25T10:50:16.880Z,30.030
2022-08-25T10:55:16.854Z,30.028
2022-08-25T11:00:16.858Z,30.028
2022-08-25T11:05:17.046Z,30.033
2022-08-25T11:10:16.881Z,30.033
2022-08-25T11:15:16.933Z,30.034
2022-08-25T11:20:26.471Z,30.035
2022-08-25T11:25:18.402Z,30.037
2022-08-25T11:30:17.004Z,30.038
2022-08-25T11:35:17.003Z,30.038
2022-08-25T11:40:17.221Z,30.042
2022-08-25T11:45:16.951Z,30.042
2022-08-25T11:50:16.976Z,30.044
2022-08-25T11:55:17.001Z,30.043
2022-08-25T12:00:17.111Z,30.043
2022-08-25T12:05:17.249Z,30.043
2022-08-25T12:10:17.022Z,30.046
2022-08-25T12:15:17.094Z,30.046
2022-08-25T12:20:17.031Z,30.049
2022-08-25T12:25:17.133Z,30.044
2022-08-25T12:30:18.569Z,30.046
2022-08-25T12:35:17.271Z,30.046
2022-08-25T12:40:17.227Z,30.050
2022-08-25T12:45:17.133Z,30.047
2022-08-25T12:50:17.225Z,30.047
2022-08-25T12:55:17.182Z,30.046
2022-08-25T13:00:18.325Z,30.045
2022-08-25T13:05:17.319Z,30.045
2022-08-25T13:10:17.229Z,30.046
2022-08-25T13:15:17.259Z,30.045
2022-08-25T13:20:17.299Z,30.046
2022-08-25T13:25:17.848Z,30.047
2022-08-25T13:30:17.271Z,30.050
2022-08-25T13:35:17.628Z,30.051
2022-08-25T13:40:17.851Z,30.051
2022-08-25T13:45:17.174Z,30.049
2022-08-25T13:50:17.377Z,30.051
2022-08-25T13:55:17.254Z,30.051
2022-08-25T14:00:17.391Z,30.054
2022-08-25T14:05:17.346Z,30.054
2022-08-25T14:10:17.336Z,30.053
2022-08-25T14:15:17.867Z,30.056
2022-08-25T14:20:17.379Z,30.058
2022-08-25T14:25:17.503Z,30.058
2022-08-25T14:30:17.348Z,30.061
2022-08-25T14:35:17.382Z,30.060
2022-08-25T14:40:17.566Z,30.060
2022-08-25T14:45:17.418Z,30.056
2022-08-25T14:50:17.396Z,30.057
2022-08-25T14:55:17.425Z,30.057
2022-08-25T15:00:15.315Z,30.058
2022-08-25T15:05:15.379Z,30.059
2022-08-25T15:10:15.486Z,30.059
2022-08-25T15:15:15.464Z,30.059
2022-08-25T15:20:15.651Z,30.058
2022-08-25T15:25:15.477Z,30.055
2022-08-25T15:30:15.786Z,30.057
2022-08-25T15:35:15.540Z,30.058
2022-08-25T15:40:15.495Z,30.055
2022-08-25T15:45:15.536Z,30.056
2022-08-25T15:50:15.622Z,30.053
2022-08-25T15:55:15.536Z,30.052
2022-08-25T16:00:16.737Z,30.054
2022-08-25T16:05:16.202Z,30.052
2022-08-25T16:10:15.692Z,30.055
2022-08-25T16:15:15.610Z,30.052
2022-08-25T16:20:15.689Z,30.048
2022-08-25T16:25:15.572Z,30.050
2022-08-25T16:30:17.680Z,30.051
2022-08-25T16:35:15.569Z,30.051
2022-08-25T16:40:15.695Z,30.050
2022-08-25T16:45:15.654Z,30.049
2022-08-25T16:50:15.729Z,30.050
2022-08-25T16:55:15.987Z,30.049
2022-08-25T17:00:15.638Z,30.049
2022-08-25T17:05:15.796Z,30.051
2022-08-25T17:10:15.622Z,30.052
2022-08-25T17:15:15.988Z,30.052
2022-08-25T17:20:15.880Z,30.053
2022-08-25T17:25:15.903Z,30.056
2022-08-25T17:30:15.729Z,30.055
2022-08-25T17:35:15.777Z,30.055
2022-08-25T17:40:15.807Z,30.055
2022-08-25T17:45:15.740Z,30.059
2022-08-25T17:50:15.739Z,30.055
2022-08-25T17:55:15.894Z,30.054
2022-08-25T18:00:15.808Z,30.052
2022-08-25T18:05:15.861Z,30.050
2022-08-25T18:10:15.810Z,30.049
2022-08-25T18:15:16.014Z,30.045
2022-08-25T18:20:15.925Z,30.046
2022-08-25T18:25:15.844Z,30.047
2022-08-25T18:30:15.934Z,30.045
2022-08-25T18:35:15.877Z,30.044
2022-08-25T18:40:16.032Z,30.041
2022-08-25T18:45:16.008Z,30.043
2022-08-25T18:50:15.870Z,30.042
2022-08-25T18:55:16.101Z,30.040
2022-08-25T19:00:16.290Z,30.039
2022-08-25T19:05:15.915Z,30.037
2022-08-25T19:10:15.962Z,30.034
2022-08-25T19:15:16.034Z,30.033
2022-08-25T19:20:16.081Z,30.030
2022-08-25T19:25:16.118Z,30.027
2022-08-25T19:30:16.015Z,30.028
2022-08-25T19:35:16.140Z,30.028
2022-08-25T19:40:17.706Z,30.029
2022-08-25T19:45:16.268Z,30.030
2022-08-25T19:50:16.909Z,30.028
2022-08-25T19:55:16.187Z,30.029
2022-08-25T20:00:16.003Z,30.028
2022-08-25T20:05:16.117Z,30.027
2022-08-25T20:10:16.078Z,30.027
2022-08-25T20:15:16.617Z,30.027
2022-08-25T20:20:16.092Z,30.029
2022-08-25T20:25:16.375Z,30.029
2022-08-25T20:30:16.633Z,30.029
2022-08-25T20:35:16.278Z,30.028
2022-08-25T20:40:16.871Z,30.031
2022-08-25T20:45:16.132Z,30.028
2022-08-25T20:50:16.217Z,30.031
2022-08-25T20:55:17.614Z,30.028
2022-08-25T21:00:16.562Z,30.027
2022-08-25T21:05:16.252Z,30.026
2022-08-25T21:10:16.184Z,30.025
2022-08-25T21:15:18.213Z,30.025
2022-08-25T21:20:16.265Z,30.023
2022-08-25T21:25:16.231Z,30.023
2022-08-25T21:30:16.176Z,30.025
2022-08-25T21:35:16.261Z,30.023
2022-08-25T21:40:16.368Z,30.022
2022-08-25T21:45:16.270Z,30.025
2022-08-25T21:50:16.392Z,30.023
2022-08-25T21:55:16.462Z,30.024
2022-08-25T22:00:16.374Z,30.023
2022-08-25T22:05:16.322Z,30.025
2022-08-25T22:10:16.773Z,30.025
2022-08-25T22:15:16.495Z,30.024
2022-08-25T22:20:16.344Z,30.024
2022-08-25T22:25:16.337Z,30.022
2022-08-25T22:30:16.566Z,30.021
2022-08-25T22:35:16.551Z,30.021
2022-08-25T22:40:16.562Z,30.018
2022-08-25T22:45:16.409Z,30.021
2022-08-25T22:50:17.233Z,30.021
2022-08-25T22:55:16.423Z,30.023
2022-08-25T23:00:16.437Z,30.021
2022-08-25T23:05:16.501Z,30.023
2022-08-25T23:10:16.423Z,30.022
2022-08-25T23:15:16.567Z,30.023
2022-08-25T23:20:16.608Z,30.022
2022-08-25T23:25:16.607Z,30.025
2022-08-25T23:30:16.574Z,30.026
2022-08-25T23:35:16.529Z,30.027
2022-08-25T23:40:19.378Z,30.029
2022-08-25T23:45:16.506Z,30.026
2022-08-25T23:50:16.570Z,30.028
2022-08-25T23:55:16.609Z,30.027
